createdAt,value
2017-04-08T00:00:00.736Z,0
2017-04-08T00:01:00.414Z,0
2017-04-08T00:02:00.399Z,0
2017-04-08T00:03:00.677Z,0
2017-04-08T00:04:00.667Z,0
2017-04-08T00:05:00.642Z,0
2017-04-08T00:06:00.659Z,0
2017-04-08T00:07:00.610Z,0
2017-04-08T00:08:00.592Z,0
2017-04-08T00:09:00.569Z,0
2017-04-08T00:10:00.553Z,0
2017-04-08T00:11:00.530Z,0
2017-04-08T00:12:00.511Z,0
2017-04-08T00:13:00.499Z,0
2017-04-08T00:14:00.182Z,0
2017-04-08T00:15:00.464Z,0
2017-04-08T00:16:00.430Z,0
2017-04-08T00:17:00.419Z,0
2017-04-08T00:18:00.403Z,0
2017-04-08T00:19:00.379Z,0
2017-04-08T00:20:00.358Z,0
2017-04-08T00:21:00.337Z,0
2017-04-08T00:22:00.322Z,0
2017-04-08T00:23:00.302Z,0
2017-04-08T00:24:00.293Z,0
2017-04-08T00:25:00.263Z,0
2017-04-08T00:26:00.243Z,0
2017-04-08T00:27:00.227Z,0
2017-04-08T00:28:00.201Z,0
2017-04-08T00:29:00.185Z,0
2017-04-08T00:30:00.180Z,0
2017-04-08T00:31:00.148Z,0
2017-04-08T00:32:00.130Z,0
2017-04-08T00:33:00.112Z,0
2017-04-08T00:34:00.102Z,0
2017-04-08T00:35:00.078Z,0
2017-04-08T00:36:00.055Z,0
2017-04-08T00:37:00.041Z,0
2017-04-08T00:38:00.026Z,0
2017-04-08T00:39:00.006Z,0
2017-04-08T00:39:59.977Z,0
2017-04-08T00:40:59.960Z,0
2017-04-08T00:41:59.943Z,0
2017-04-08T00:42:59.923Z,0
2017-04-08T00:43:59.910Z,0
2017-04-08T00:44:59.890Z,0
2017-04-08T00:45:59.865Z,0
2017-04-08T00:46:59.845Z,0
2017-04-08T00:47:59.831Z,0
2017-04-08T00:48:59.812Z,0
2017-04-08T00:49:59.483Z,0
2017-04-08T00:50:59.769Z,0
2017-04-08T00:51:59.753Z,0
2017-04-08T00:52:59.437Z,0
2017-04-08T00:53:59.714Z,0
2017-04-08T00:54:59.695Z,0
2017-04-08T00:55:59.677Z,0
2017-04-08T00:56:59.657Z,0
2017-04-08T00:57:59.660Z,0
2017-04-08T00:58:59.622Z,0
2017-04-08T00:59:59.607Z,0
2017-04-08T01:00:59.578Z,0
2017-04-08T01:01:59.570Z,0
2017-04-08T01:02:59.547Z,0
2017-04-08T01:03:59.523Z,0
2017-04-08T01:04:59.516Z,0
2017-04-08T01:05:59.489Z,0
2017-04-08T01:06:59.466Z,0
2017-04-08T01:07:59.448Z,0
2017-04-08T01:08:59.433Z,0
2017-04-08T01:09:59.408Z,0
2017-04-08T01:10:59.107Z,0
2017-04-08T01:11:59.370Z,0
2017-04-08T01:12:59.358Z,0
2017-04-08T01:13:59.345Z,0
2017-04-08T01:14:59.323Z,0
2017-04-08T01:15:59.296Z,0
2017-04-08T01:16:59.278Z,0
2017-04-08T01:17:59.263Z,0
2017-04-08T01:18:59.242Z,0
2017-04-08T01:19:59.224Z,0
2017-04-08T01:20:59.203Z,0
2017-04-08T01:21:59.186Z,0
2017-04-08T01:22:59.165Z,0
2017-04-08T01:23:58.852Z,0
2017-04-08T01:24:59.142Z,0
2017-04-08T01:25:59.109Z,0
2017-04-08T01:26:59.105Z,0
2017-04-08T01:27:59.070Z,0
2017-04-08T01:28:59.053Z,0
2017-04-08T01:29:59.052Z,0
2017-04-08T01:30:59.014Z,0
2017-04-08T01:31:59.004Z,0
2017-04-08T01:32:58.682Z,0
2017-04-08T01:33:58.963Z,0
2017-04-08T01:34:58.949Z,0
2017-04-08T01:35:58.922Z,0
2017-04-08T01:36:58.609Z,0
2017-04-08T01:37:58.894Z,0
2017-04-08T01:38:58.871Z,0
2017-04-08T01:39:58.855Z,0
2017-04-08T01:40:58.835Z,0
2017-04-08T01:41:58.512Z,0
2017-04-08T01:42:58.804Z,0
2017-04-08T01:43:58.785Z,0
2017-04-08T01:44:58.463Z,0
2017-04-08T01:45:58.745Z,0
2017-04-08T01:46:58.726Z,0
2017-04-08T01:47:58.404Z,0
2017-04-08T01:48:58.392Z,0
2017-04-08T01:49:58.674Z,0
2017-04-08T01:50:58.660Z,0
2017-04-08T01:51:58.638Z,0
2017-04-08T01:52:58.667Z,0
2017-04-08T01:53:58.606Z,0
2017-04-08T01:54:58.289Z,0
2017-04-08T01:55:58.270Z,0
2017-04-08T01:56:58.546Z,0
2017-04-08T01:57:58.534Z,0
2017-04-08T01:58:58.220Z,0
2017-04-08T01:59:58.490Z,0
2017-04-08T02:00:58.474Z,0
2017-04-08T02:01:58.450Z,0
2017-04-08T02:02:58.447Z,0
2017-04-08T02:03:58.416Z,0
2017-04-08T02:04:58.097Z,0
2017-04-08T02:05:58.082Z,0
2017-04-08T02:06:58.370Z,0
2017-04-08T02:07:58.044Z,0
2017-04-08T02:08:58.326Z,0
2017-04-08T02:09:58.006Z,0
2017-04-08T02:10:58.293Z,0
2017-04-08T02:11:58.274Z,0
2017-04-08T02:12:58.251Z,0
2017-04-08T02:13:58.237Z,0
2017-04-08T02:14:58.217Z,0
2017-04-08T02:15:58.214Z,0
2017-04-08T02:16:58.175Z,0
2017-04-08T02:17:58.170Z,0
2017-04-08T02:18:58.145Z,0
2017-04-08T02:19:58.128Z,0
2017-04-08T02:20:58.107Z,0
2017-04-08T02:21:58.091Z,0
2017-04-08T02:22:58.076Z,0
2017-04-08T02:23:58.069Z,0
2017-04-08T02:24:58.039Z,0
2017-04-08T02:25:58.023Z,0
2017-04-08T02:26:58.004Z,0
2017-04-08T02:27:57.984Z,0
2017-04-08T02:28:57.969Z,0
2017-04-08T02:29:57.939Z,0
2017-04-08T02:30:57.922Z,0
2017-04-08T02:31:57.908Z,0
2017-04-08T02:32:57.886Z,0
2017-04-08T02:33:57.869Z,0
2017-04-08T02:34:57.849Z,0
2017-04-08T02:35:57.236Z,0
2017-04-08T02:36:57.813Z,0
2017-04-08T02:37:57.790Z,0
2017-04-08T02:38:57.774Z,0
2017-04-08T02:39:57.757Z,0
2017-04-08T02:40:57.738Z,0
2017-04-08T02:41:57.722Z,0
2017-04-08T02:42:57.395Z,0
2017-04-08T02:43:57.678Z,0
2017-04-08T02:44:57.661Z,0
2017-04-08T02:45:57.644Z,0
2017-04-08T02:46:57.624Z,0
2017-04-08T02:47:57.610Z,0
2017-04-08T02:48:57.297Z,0
2017-04-08T02:49:57.573Z,0
2017-04-08T02:50:57.559Z,0
2017-04-08T02:51:57.538Z,0
2017-04-08T02:52:57.514Z,0
2017-04-08T02:53:57.508Z,0
2017-04-08T02:54:57.485Z,0
2017-04-08T02:55:57.466Z,0
2017-04-08T02:56:57.455Z,0
2017-04-08T02:57:57.432Z,0
2017-04-08T02:58:57.414Z,0
2017-04-08T02:59:57.387Z,0
2017-04-08T03:00:57.375Z,0
2017-04-08T03:01:57.361Z,0
2017-04-08T03:02:57.345Z,0
2017-04-08T03:03:57.325Z,0
2017-04-08T03:04:57.311Z,0
2017-04-08T03:05:57.308Z,0
2017-04-08T03:06:56.976Z,0
2017-04-08T03:07:57.251Z,0
2017-04-08T03:08:57.237Z,0
2017-04-08T03:09:57.223Z,0
2017-04-08T03:10:57.209Z,0
2017-04-08T03:11:57.185Z,0
2017-04-08T03:12:57.165Z,0
2017-04-08T03:13:57.157Z,0
2017-04-08T03:14:57.131Z,0
2017-04-08T03:15:57.118Z,0
2017-04-08T03:16:57.102Z,0
2017-04-08T03:17:57.084Z,0
2017-04-08T03:18:57.066Z,0
2017-04-08T03:19:57.048Z,0
2017-04-08T03:20:57.035Z,0
2017-04-08T03:21:57.017Z,0
2017-04-08T03:22:56.998Z,0
2017-04-08T03:23:56.981Z,0
2017-04-08T03:24:56.962Z,0
2017-04-08T03:25:56.941Z,0
2017-04-08T03:26:56.928Z,0
2017-04-08T03:27:56.907Z,0
2017-04-08T03:28:56.894Z,0
2017-04-08T03:29:56.880Z,0
2017-04-08T03:30:56.863Z,0
2017-04-08T03:31:56.841Z,0
2017-04-08T03:32:56.823Z,0
2017-04-08T03:33:56.804Z,0
2017-04-08T03:34:56.782Z,0
2017-04-08T03:35:56.762Z,0
2017-04-08T03:36:56.757Z,0
2017-04-08T03:37:56.730Z,0
2017-04-08T03:38:56.722Z,0
2017-04-08T03:39:56.693Z,0
2017-04-08T03:40:56.686Z,0
2017-04-08T03:41:56.668Z,0
2017-04-08T03:42:56.642Z,0
2017-04-08T03:43:56.630Z,0
2017-04-08T03:44:56.611Z,0
2017-04-08T03:45:56.597Z,0
2017-04-08T03:46:56.579Z,0
2017-04-08T03:47:56.555Z,0
2017-04-08T03:48:56.545Z,0
2017-04-08T03:49:56.528Z,0
2017-04-08T03:50:56.505Z,0
2017-04-08T03:51:56.493Z,0
2017-04-08T03:52:56.479Z,0
2017-04-08T03:53:56.460Z,0
2017-04-08T03:54:56.444Z,0
2017-04-08T03:55:56.116Z,0
2017-04-08T03:56:56.110Z,0
2017-04-08T03:57:56.388Z,0
2017-04-08T03:58:56.367Z,0
2017-04-08T03:59:56.395Z,0
2017-04-08T04:00:56.338Z,0
2017-04-08T04:01:56.323Z,0
2017-04-08T04:02:56.306Z,0
2017-04-08T04:03:56.292Z,0
2017-04-08T04:04:56.267Z,0
2017-04-08T04:05:56.243Z,0
2017-04-08T04:06:55.935Z,0
2017-04-08T04:07:56.215Z,0
2017-04-08T04:08:56.201Z,0
2017-04-08T04:09:56.180Z,0
2017-04-08T04:10:56.164Z,0
2017-04-08T04:11:56.151Z,0
2017-04-08T04:12:56.130Z,0
2017-04-08T04:13:56.108Z,0
2017-04-08T04:14:56.091Z,0
2017-04-08T04:15:56.077Z,0
2017-04-08T04:16:55.754Z,0
2017-04-08T04:17:56.038Z,0
2017-04-08T04:18:56.024Z,0
2017-04-08T04:19:56.012Z,0
2017-04-08T04:20:55.994Z,0
2017-04-08T04:21:55.976Z,0
2017-04-08T04:22:55.961Z,0
2017-04-08T04:23:55.945Z,0
2017-04-08T04:24:55.928Z,0
2017-04-08T04:25:55.912Z,0
2017-04-08T04:26:55.886Z,0
2017-04-08T04:27:55.878Z,0
2017-04-08T04:28:55.873Z,0
2017-04-08T04:29:55.844Z,0
2017-04-08T04:30:55.516Z,0
2017-04-08T04:31:55.829Z,0
2017-04-08T04:32:55.784Z,0
2017-04-08T04:33:55.770Z,5
2017-04-08T04:34:55.747Z,5
2017-04-08T04:35:55.730Z,5
2017-04-08T04:36:55.718Z,5
2017-04-08T04:37:55.698Z,5
2017-04-08T04:38:55.682Z,10
2017-04-08T04:39:55.665Z,10
2017-04-08T04:40:55.648Z,10
2017-04-08T04:41:55.626Z,10
2017-04-08T04:42:55.610Z,15
2017-04-08T04:43:55.587Z,15
2017-04-08T04:44:55.575Z,15
2017-04-08T04:45:55.557Z,20
2017-04-08T04:46:55.545Z,20
2017-04-08T04:47:55.520Z,30
2017-04-08T04:48:55.508Z,35
2017-04-08T04:49:55.487Z,45
2017-04-08T04:50:55.476Z,50
2017-04-08T04:51:55.454Z,55
2017-04-08T04:52:55.441Z,65
2017-04-08T04:53:55.424Z,70
2017-04-08T04:54:55.404Z,75
2017-04-08T04:55:55.386Z,80
2017-04-08T04:56:55.370Z,90
2017-04-08T04:57:55.353Z,95
2017-04-08T04:58:55.338Z,100
2017-04-08T04:59:55.316Z,105
2017-04-08T05:00:54.993Z,110
2017-04-08T05:01:55.283Z,115
2017-04-08T05:02:55.269Z,120
2017-04-08T05:03:55.249Z,125
2017-04-08T05:04:55.245Z,135
2017-04-08T05:05:55.222Z,145
2017-04-08T05:06:54.896Z,145
2017-04-08T05:07:55.185Z,150
2017-04-08T05:08:55.162Z,160
2017-04-08T05:09:55.149Z,165
2017-04-08T05:10:55.142Z,170
2017-04-08T05:11:55.107Z,175
2017-04-08T05:12:55.098Z,180
2017-04-08T05:13:55.083Z,175
2017-04-08T05:14:54.767Z,170
2017-04-08T05:15:54.444Z,175
2017-04-08T05:16:55.038Z,185
2017-04-08T05:17:55.012Z,210
2017-04-08T05:18:54.999Z,230
2017-04-08T05:19:54.686Z,240
2017-04-08T05:20:54.975Z,245
2017-04-08T05:21:54.959Z,250
2017-04-08T05:22:54.945Z,260
2017-04-08T05:23:54.639Z,265
2017-04-08T05:24:54.604Z,270
2017-04-08T05:25:54.894Z,270
2017-04-08T05:26:54.883Z,275
2017-04-08T05:27:54.862Z,280
2017-04-08T05:28:54.853Z,285
2017-04-08T05:29:54.844Z,295
2017-04-08T05:30:54.518Z,295
2017-04-08T05:31:54.800Z,295
2017-04-08T05:32:54.788Z,295
2017-04-08T05:33:54.766Z,305
2017-04-08T05:34:54.759Z,320
2017-04-08T05:35:54.735Z,315
2017-04-08T05:36:54.720Z,295
2017-04-08T05:37:54.706Z,280
2017-04-08T05:38:54.701Z,270
2017-04-08T05:39:54.676Z,215
2017-04-08T05:40:54.674Z,310
2017-04-08T05:41:54.652Z,335
2017-04-08T05:42:54.340Z,340
2017-04-08T05:43:54.626Z,350
2017-04-08T05:44:54.611Z,360
2017-04-08T05:45:54.631Z,365
2017-04-08T05:46:54.580Z,375
2017-04-08T05:47:54.568Z,375
2017-04-08T05:48:54.589Z,385
2017-04-08T05:49:54.528Z,375
2017-04-08T05:50:54.515Z,390
2017-04-08T05:51:54.499Z,400
2017-04-08T05:52:54.493Z,420
2017-04-08T05:53:54.475Z,425
2017-04-08T05:54:54.453Z,435
2017-04-08T05:55:54.428Z,405
2017-04-08T05:56:54.418Z,450
2017-04-08T05:57:54.413Z,440
2017-04-08T05:58:54.393Z,470
2017-04-08T05:59:54.367Z,505
2017-04-08T06:00:54.361Z,510
2017-04-08T06:01:54.347Z,385
2017-04-08T06:02:54.326Z,525
2017-04-08T06:03:54.311Z,525
2017-04-08T06:04:54.301Z,535
2017-04-08T06:05:54.284Z,540
2017-04-08T06:06:54.263Z,545
2017-04-08T06:07:54.255Z,550
2017-04-08T06:08:54.246Z,555
2017-04-08T06:09:54.221Z,565
2017-04-08T06:10:54.207Z,570
2017-04-08T06:11:54.193Z,580
2017-04-08T06:12:54.194Z,585
2017-04-08T06:13:54.173Z,550
2017-04-08T06:14:54.176Z,595
2017-04-08T06:15:54.133Z,565
2017-04-08T06:16:54.124Z,510
2017-04-08T06:17:54.106Z,455
2017-04-08T06:18:54.098Z,500
2017-04-08T06:19:54.075Z,575
2017-04-08T06:20:54.065Z,595
2017-04-08T06:21:54.051Z,620
2017-04-08T06:22:54.071Z,610
2017-04-08T06:23:54.019Z,585
2017-04-08T06:24:54.008Z,575
2017-04-08T06:25:53.391Z,610
2017-04-08T06:26:53.980Z,650
2017-04-08T06:27:53.963Z,500
2017-04-08T06:28:53.960Z,525
2017-04-08T06:29:53.944Z,660
2017-04-08T06:30:53.932Z,640
2017-04-08T06:31:53.915Z,660
2017-04-08T06:32:53.900Z,615
2017-04-08T06:33:53.890Z,685
2017-04-08T06:34:53.875Z,680
2017-04-08T06:35:53.857Z,655
2017-04-08T06:36:53.851Z,650
2017-04-08T06:37:53.843Z,660
2017-04-08T06:38:53.517Z,695
2017-04-08T06:39:53.811Z,700
2017-04-08T06:40:53.810Z,715
2017-04-08T06:41:53.787Z,730
2017-04-08T06:42:53.774Z,755
2017-04-08T06:43:53.769Z,625
2017-04-08T06:44:53.757Z,765
2017-04-08T06:45:53.738Z,800
2017-04-08T06:46:53.728Z,805
2017-04-08T06:47:53.720Z,810
2017-04-08T06:48:53.707Z,780
2017-04-08T06:49:53.692Z,795
2017-04-08T06:50:53.689Z,765
2017-04-08T06:51:53.681Z,840
2017-04-08T06:52:53.648Z,850
2017-04-08T06:53:53.652Z,795
2017-04-08T06:54:53.630Z,805
2017-04-08T06:55:53.615Z,865
2017-04-08T06:56:53.609Z,890
2017-04-08T06:57:53.636Z,700
2017-04-08T06:58:53.584Z,745
2017-04-08T06:59:53.571Z,840
2017-04-08T07:00:53.566Z,865
2017-04-08T07:01:53.546Z,880
2017-04-08T07:02:53.542Z,885
2017-04-08T07:03:53.528Z,895
2017-04-08T07:04:53.520Z,935
2017-04-08T07:05:53.195Z,935
2017-04-08T07:06:53.486Z,945
2017-04-08T07:07:53.512Z,955
2017-04-08T07:08:53.474Z,960
2017-04-08T07:09:53.459Z,970
2017-04-08T07:10:53.138Z,970
2017-04-08T07:11:53.437Z,985
2017-04-08T07:12:53.421Z,950
2017-04-08T07:13:53.410Z,965
2017-04-08T07:14:53.397Z,950
2017-04-08T07:15:53.118Z,965
2017-04-08T07:16:53.407Z,1030
2017-04-08T07:17:53.364Z,1055
2017-04-08T07:18:53.353Z,1055
2017-04-08T07:19:53.365Z,1010
2017-04-08T07:20:53.030Z,1015
2017-04-08T07:21:53.338Z,1040
2017-04-08T07:22:53.317Z,1015
2017-04-08T07:23:53.304Z,1120
2017-04-08T07:24:53.286Z,1120
2017-04-08T07:25:53.281Z,1125
2017-04-08T07:26:53.284Z,1125
2017-04-08T07:27:53.269Z,830
2017-04-08T07:28:53.254Z,1170
2017-04-08T07:29:53.246Z,1165
2017-04-08T07:30:52.925Z,1140
2017-04-08T07:31:53.218Z,1095
2017-04-08T07:32:53.206Z,1190
2017-04-08T07:33:53.197Z,1210
2017-04-08T07:34:53.182Z,1200
2017-04-08T07:35:52.870Z,1215
2017-04-08T07:36:53.173Z,1190
2017-04-08T07:37:53.155Z,1235
2017-04-08T07:38:53.139Z,1260
2017-04-08T07:39:52.835Z,1270
2017-04-08T07:40:52.833Z,1290
2017-04-08T07:41:53.111Z,1155
2017-04-08T07:42:53.105Z,1280
2017-04-08T07:43:53.106Z,1310
2017-04-08T07:44:53.082Z,1320
2017-04-08T07:45:53.078Z,1335
2017-04-08T07:46:53.070Z,1345
2017-04-08T07:47:53.059Z,1355
2017-04-08T07:48:53.056Z,1365
2017-04-08T07:49:53.050Z,1380
2017-04-08T07:50:53.028Z,1390
2017-04-08T07:51:53.006Z,1395
2017-04-08T07:52:53.011Z,1405
2017-04-08T07:53:53.004Z,1410
2017-04-08T07:54:52.991Z,1420
2017-04-08T07:55:52.981Z,1435
2017-04-08T07:56:52.971Z,1450
2017-04-08T07:57:52.956Z,1460
2017-04-08T07:58:52.949Z,1480
2017-04-08T07:59:52.938Z,1460
2017-04-08T08:00:52.933Z,1445
2017-04-08T08:01:52.924Z,1495
2017-04-08T08:02:52.910Z,1530
2017-04-08T08:03:52.904Z,1545
2017-04-08T08:04:52.895Z,1555
2017-04-08T08:05:52.882Z,1570
2017-04-08T08:06:52.874Z,1575
2017-04-08T08:07:52.865Z,1590
2017-04-08T08:08:52.856Z,1600
2017-04-08T08:09:52.845Z,1610
2017-04-08T08:10:52.832Z,1625
2017-04-08T08:11:52.826Z,1640
2017-04-08T08:12:52.816Z,1660
2017-04-08T08:13:52.807Z,1665
2017-04-08T08:14:52.801Z,1660
2017-04-08T08:15:52.797Z,1570
2017-04-08T08:16:52.783Z,1700
2017-04-08T08:17:52.773Z,1700
2017-04-08T08:18:52.764Z,1715
2017-04-08T08:19:52.761Z,1720
2017-04-08T08:20:52.450Z,1730
2017-04-08T08:21:52.446Z,1740
2017-04-08T08:22:52.737Z,1745
2017-04-08T08:23:52.774Z,1760
2017-04-08T08:24:52.418Z,1770
2017-04-08T08:25:52.114Z,1775
2017-04-08T08:26:52.714Z,1780
2017-04-08T08:27:52.712Z,1790
2017-04-08T08:28:52.400Z,1785
2017-04-08T08:29:52.690Z,1815
2017-04-08T08:30:52.681Z,1825
2017-04-08T08:31:52.680Z,1840
2017-04-08T08:32:52.682Z,1845
2017-04-08T08:33:52.671Z,1860
2017-04-08T08:34:52.670Z,1875
2017-04-08T08:35:52.661Z,1885
2017-04-08T08:36:52.652Z,1890
2017-04-08T08:37:52.651Z,1905
2017-04-08T08:38:52.644Z,1910
2017-04-08T08:39:52.631Z,1920
2017-04-08T08:40:52.626Z,1940
2017-04-08T08:41:52.621Z,1950
2017-04-08T08:42:52.629Z,1965
2017-04-08T08:43:52.624Z,1975
2017-04-08T08:44:52.603Z,1990
2017-04-08T08:45:52.592Z,2015
2017-04-08T08:46:52.582Z,2025
2017-04-08T08:47:52.283Z,2045
2017-04-08T08:48:52.594Z,2070
2017-04-08T08:49:52.570Z,2085
2017-04-08T08:50:52.588Z,2090
2017-04-08T08:51:52.562Z,2115
2017-04-08T08:52:52.552Z,2140
2017-04-08T08:53:52.544Z,2165
2017-04-08T08:54:52.535Z,2175
2017-04-08T08:55:52.531Z,2205
2017-04-08T08:56:52.523Z,2220
2017-04-08T08:57:52.517Z,2240
2017-04-08T08:58:52.509Z,2260
2017-04-08T08:59:52.506Z,2290
2017-04-08T09:00:52.524Z,2305
2017-04-08T09:01:52.497Z,2325
2017-04-08T09:02:52.484Z,2340
2017-04-08T09:03:52.487Z,2355
2017-04-08T09:04:52.483Z,2380
2017-04-08T09:05:52.470Z,2390
2017-04-08T09:06:52.466Z,2410
2017-04-08T09:07:52.468Z,2430
2017-04-08T09:08:52.465Z,2445
2017-04-08T09:09:52.459Z,2465
2017-04-08T09:10:52.449Z,2480
2017-04-08T09:11:52.445Z,2495
2017-04-08T09:12:52.454Z,2525
2017-04-08T09:13:52.445Z,2540
2017-04-08T09:14:52.432Z,2560
2017-04-08T09:15:52.433Z,2580
2017-04-08T09:16:52.415Z,2605
2017-04-08T09:17:52.472Z,2625
2017-04-08T09:18:52.119Z,2645
2017-04-08T09:19:52.439Z,2680
2017-04-08T09:20:52.106Z,2700
2017-04-08T09:21:52.395Z,2725
2017-04-08T09:22:52.392Z,2745
2017-04-08T09:23:52.393Z,2790
2017-04-08T09:24:52.375Z,2805
2017-04-08T09:25:52.377Z,2820
2017-04-08T09:26:52.072Z,2850
2017-04-08T09:27:52.365Z,2875
2017-04-08T09:28:52.387Z,2915
2017-04-08T09:29:52.352Z,2935
2017-04-08T09:30:52.350Z,2975
2017-04-08T09:31:52.336Z,3000
2017-04-08T09:32:52.342Z,3045
2017-04-08T09:33:52.076Z,3070
2017-04-08T09:34:52.030Z,3105
2017-04-08T09:35:52.323Z,3140
2017-04-08T09:36:52.325Z,3190
2017-04-08T09:37:52.317Z,3220
2017-04-08T09:38:52.308Z,3265
2017-04-08T09:39:52.301Z,3330
2017-04-08T09:40:52.291Z,3345
2017-04-08T09:41:52.285Z,3360
2017-04-08T09:42:52.291Z,3620
2017-04-08T09:43:52.271Z,4550
2017-04-08T09:44:52.263Z,3750
2017-04-08T09:45:52.262Z,3420
2017-04-08T09:46:51.964Z,3485
2017-04-08T09:47:51.952Z,3485
2017-04-08T09:48:52.259Z,3470
2017-04-08T09:49:52.247Z,3490
2017-04-08T09:50:52.238Z,3615
2017-04-08T09:51:51.934Z,3635
2017-04-08T09:52:52.234Z,3515
2017-04-08T09:53:52.230Z,3465
2017-04-08T09:54:52.227Z,3660
2017-04-08T09:55:52.214Z,3465
2017-04-08T09:56:51.913Z,3605
2017-04-08T09:57:52.213Z,3710
2017-04-08T09:58:52.214Z,3665
2017-04-08T09:59:52.206Z,3410
2017-04-08T10:00:52.193Z,3305
2017-04-08T10:01:52.187Z,3455
2017-04-08T10:02:52.196Z,4190
2017-04-08T10:03:51.877Z,3825
2017-04-08T10:04:52.191Z,3545
2017-04-08T10:05:52.180Z,3365
2017-04-08T10:06:52.173Z,3130
2017-04-08T10:07:52.166Z,3105
2017-04-08T10:08:52.199Z,5105
2017-04-08T10:09:52.164Z,5300
2017-04-08T10:10:52.153Z,4955
2017-04-08T10:11:52.149Z,4995
2017-04-08T10:12:52.140Z,5170
2017-04-08T10:13:52.170Z,5995
2017-04-08T10:14:52.134Z,5730
2017-04-08T10:15:52.142Z,4495
2017-04-08T10:16:52.132Z,4315
2017-04-08T10:17:51.823Z,4305
2017-04-08T10:18:52.118Z,4380
2017-04-08T10:19:52.124Z,3960
2017-04-08T10:20:52.119Z,4165
2017-04-08T10:21:52.111Z,4505
2017-04-08T10:22:52.116Z,3985
2017-04-08T10:23:52.109Z,3835
2017-04-08T10:24:52.105Z,3815
2017-04-08T10:25:51.799Z,3885
2017-04-08T10:26:52.095Z,3865
2017-04-08T10:27:52.087Z,3845
2017-04-08T10:28:52.089Z,4220
2017-04-08T10:29:51.784Z,4405
2017-04-08T10:30:52.079Z,4060
2017-04-08T10:31:52.078Z,4385
2017-04-08T10:32:52.063Z,4390
2017-04-08T10:33:52.068Z,4005
2017-04-08T10:34:52.063Z,4215
2017-04-08T10:35:52.063Z,3635
2017-04-08T10:36:52.059Z,3805
2017-04-08T10:37:52.053Z,4220
2017-04-08T10:38:52.051Z,3925
2017-04-08T10:39:52.048Z,3305
2017-04-08T10:40:52.045Z,2940
2017-04-08T10:41:51.767Z,3395
2017-04-08T10:42:52.032Z,3560
2017-04-08T10:43:52.035Z,3715
2017-04-08T10:44:52.033Z,3880
2017-04-08T10:45:52.019Z,3755
2017-04-08T10:46:52.012Z,3605
2017-04-08T10:47:52.010Z,3925
2017-04-08T10:48:52.010Z,4465
2017-04-08T10:49:51.999Z,4520
2017-04-08T10:50:51.999Z,4530
2017-04-08T10:51:52.009Z,4220
2017-04-08T10:52:51.989Z,3630
2017-04-08T10:53:51.980Z,3905
2017-04-08T10:54:51.978Z,3855
2017-04-08T10:55:51.976Z,2925
2017-04-08T10:56:52.070Z,2840
2017-04-08T10:57:51.969Z,3600
2017-04-08T10:58:51.958Z,3795
2017-04-08T10:59:51.652Z,3635
2017-04-08T11:00:51.960Z,3350
2017-04-08T11:01:51.648Z,2890
2017-04-08T11:02:51.639Z,2935
2017-04-08T11:03:51.941Z,2735
2017-04-08T11:04:51.937Z,2585
2017-04-08T11:05:51.837Z,3030
2017-04-08T11:06:51.929Z,3210
2017-04-08T11:07:51.920Z,3180
2017-04-08T11:08:51.618Z,3700
2017-04-08T11:09:51.913Z,3975
2017-04-08T11:10:52.108Z,4085
2017-04-08T11:11:52.104Z,4625
2017-04-08T11:12:51.900Z,4860
2017-04-08T11:13:51.893Z,3935
2017-04-08T11:14:51.892Z,3260
2017-04-08T11:15:51.888Z,3320
2017-04-08T11:16:51.888Z,4225
2017-04-08T11:17:51.877Z,5690
2017-04-08T11:18:51.573Z,5960
2017-04-08T11:19:51.869Z,5020
2017-04-08T11:20:51.862Z,4355
2017-04-08T11:21:51.857Z,4080
2017-04-08T11:22:51.859Z,3575
2017-04-08T11:23:51.857Z,3420
2017-04-08T11:24:51.852Z,3310
2017-04-08T11:25:51.845Z,3465
2017-04-08T11:26:51.844Z,3690
2017-04-08T11:27:51.836Z,3590
2017-04-08T11:28:51.846Z,3550
2017-04-08T11:29:51.835Z,3750
2017-04-08T11:30:51.823Z,3835
2017-04-08T11:31:51.809Z,3525
2017-04-08T11:32:52.121Z,3465
2017-04-08T11:33:51.809Z,4255
2017-04-08T11:34:51.802Z,4540
2017-04-08T11:35:51.801Z,3835
2017-04-08T11:36:51.803Z,4010
2017-04-08T11:37:51.794Z,4765
2017-04-08T11:38:51.792Z,4780
2017-04-08T11:39:51.780Z,4990
2017-04-08T11:40:51.778Z,6070
2017-04-08T11:41:51.764Z,4445
2017-04-08T11:42:51.761Z,2125
2017-04-08T11:43:51.972Z,1500
2017-04-08T11:44:51.756Z,1385
2017-04-08T11:45:51.752Z,1355
2017-04-08T11:46:51.754Z,1320
2017-04-08T11:47:51.740Z,1330
2017-04-08T11:48:51.945Z,1350
2017-04-08T11:49:51.974Z,1370
2017-04-08T11:50:51.732Z,1420
2017-04-08T11:51:51.730Z,1550
2017-04-08T11:52:51.823Z,2390
2017-04-08T11:53:51.922Z,4990
2017-04-08T11:54:51.912Z,6540
2017-04-08T11:55:51.717Z,5775
2017-04-08T11:56:51.704Z,4900
2017-04-08T11:57:51.698Z,3860
2017-04-08T11:58:51.693Z,3860
2017-04-08T11:59:51.696Z,4140
2017-04-08T12:00:51.683Z,4050
2017-04-08T12:01:51.683Z,3310
2017-04-08T12:02:51.413Z,2950
2017-04-08T12:03:51.673Z,3355
2017-04-08T12:04:51.668Z,3550
2017-04-08T12:05:51.670Z,3110
2017-04-08T12:06:51.661Z,4470
2017-04-08T12:07:51.656Z,5220
2017-04-08T12:08:51.349Z,3790
2017-04-08T12:09:51.643Z,3350
2017-04-08T12:10:51.677Z,3290
2017-04-08T12:11:51.631Z,3630
2017-04-08T12:12:51.625Z,3825
2017-04-08T12:13:51.933Z,3395
2017-04-08T12:14:51.621Z,3915
2017-04-08T12:15:51.610Z,3720
2017-04-08T12:16:51.604Z,4595
2017-04-08T12:17:51.600Z,4605
2017-04-08T12:18:51.620Z,3910
2017-04-08T12:19:51.592Z,4515
2017-04-08T12:20:51.590Z,3865
2017-04-08T12:21:51.797Z,3435
2017-04-08T12:22:51.591Z,4470
2017-04-08T12:23:51.265Z,4250
2017-04-08T12:24:51.561Z,3670
2017-04-08T12:25:51.256Z,3325
2017-04-08T12:27:05.187Z,3080
2017-04-08T12:28:05.190Z,3905
2017-04-08T12:28:51.243Z,4190
2017-04-08T12:29:51.528Z,3690
2017-04-08T12:30:51.523Z,3105
2017-04-08T12:31:51.522Z,3390
2017-04-08T12:32:51.524Z,3615
2017-04-08T12:33:51.511Z,3720
2017-04-08T12:34:51.498Z,3960
2017-04-08T12:35:51.496Z,4185
2017-04-08T12:36:51.489Z,4220
2017-04-08T12:37:51.483Z,3590
2017-04-08T12:38:51.473Z,3090
2017-04-08T12:39:51.169Z,3155
2017-04-08T12:40:51.154Z,3580
2017-04-08T12:41:51.449Z,4115
2017-04-08T12:42:51.443Z,4145
2017-04-08T12:43:51.436Z,4090
2017-04-08T12:44:51.433Z,3795
2017-04-08T12:45:51.423Z,3980
2017-04-08T12:46:51.412Z,4050
2017-04-08T12:47:51.412Z,3720
2017-04-08T12:48:51.403Z,3510
2017-04-08T12:49:51.395Z,4750
2017-04-08T12:50:51.382Z,5070
2017-04-08T12:51:51.394Z,4530
2017-04-08T12:52:51.369Z,4745
2017-04-08T12:53:51.360Z,4900
2017-04-08T12:54:51.355Z,3825
2017-04-08T12:55:51.353Z,2610
2017-04-08T12:56:51.042Z,1625
2017-04-08T12:57:51.327Z,1400
2017-04-08T12:59:04.706Z,1795
2017-04-08T12:59:51.320Z,2405
2017-04-08T13:00:51.309Z,3055
2017-04-08T13:01:51.302Z,4305
2017-04-08T13:02:51.310Z,5020
2017-04-08T13:03:51.506Z,4765
2017-04-08T13:05:04.661Z,3055
2017-04-08T13:05:51.271Z,2765
2017-04-08T13:06:51.261Z,3320
2017-04-08T13:07:51.265Z,3945
2017-04-08T13:08:51.259Z,3860
2017-04-08T13:09:51.249Z,3645
2017-04-08T13:10:51.242Z,3645
2017-04-08T13:11:51.232Z,3750
2017-04-08T13:12:51.233Z,3980
2017-04-08T13:13:51.226Z,4325
2017-04-08T13:14:51.219Z,4300
2017-04-08T13:15:51.208Z,3735
2017-04-08T13:16:51.215Z,3370
2017-04-08T13:17:51.202Z,3605
2017-04-08T13:18:51.190Z,3695
2017-04-08T13:19:51.190Z,3470
2017-04-08T13:20:51.176Z,3485
2017-04-08T13:21:51.169Z,3700
2017-04-08T13:22:51.161Z,3505
2017-04-08T13:23:51.167Z,3155
2017-04-08T13:24:51.146Z,3090
2017-04-08T13:25:50.534Z,3205
2017-04-08T13:26:51.136Z,3605
2017-04-08T13:27:51.132Z,3690
2017-04-08T13:28:50.821Z,3285
2017-04-08T13:29:51.118Z,3210
2017-04-08T13:30:51.105Z,3395
2017-04-08T13:31:51.109Z,3445
2017-04-08T13:32:51.093Z,3420
2017-04-08T13:33:51.087Z,3540
2017-04-08T13:34:51.103Z,3605
2017-04-08T13:35:51.204Z,3575
2017-04-08T13:36:51.064Z,3650
2017-04-08T13:37:50.663Z,3790
2017-04-08T13:38:50.752Z,3875
2017-04-08T13:39:50.742Z,3915
2017-04-08T13:40:50.733Z,3825
2017-04-08T13:41:50.934Z,3605
2017-04-08T13:42:50.717Z,3310
2017-04-08T13:43:51.022Z,3420
2017-04-08T13:44:51.030Z,3470
2017-04-08T13:45:51.002Z,3285
2017-04-08T13:46:50.998Z,3295
2017-04-08T13:47:50.691Z,3600
2017-04-08T13:48:50.682Z,4095
2017-04-08T13:49:50.978Z,4110
2017-04-08T13:50:50.964Z,3490
2017-04-08T13:51:50.994Z,3065